sensor_id;sensor_type;location;lat;lon;timestamp;P1;durP1;ratioP1;P2;durP2;ratioP2
37955;SDS011;23776;51.592;7.180;2023-05-24T00:00:55;8.90;;;2.13;;
37955;SDS011;23776;51.592;7.180;2023-05-24T00:03:21;8.20;;;3.53;;
37955;SDS011;23776;51.592;7.180;2023-05-24T00:05:46;12.20;;;2.55;;
37955;SDS011;23776;51.592;7.180;2023-05-24T00:08:12;8.68;;;2.65;;
37955;SDS011;23776;51.592;7.180;2023-05-24T00:10:40;15.88;;;2.30;;
37955;SDS011;23776;51.592;7.180;2023-05-24T00:13:05;14.15;;;3.30;;
37955;SDS011;23776;51.592;7.180;2023-05-24T00:15:31;15.15;;;2.55;;
37955;SDS011;23776;51.592;7.180;2023-05-24T00:17:57;9.20;;;2.28;;
37955;SDS011;23776;51.592;7.180;2023-05-24T00:20:22;10.75;;;2.70;;
37955;SDS011;23776;51.592;7.180;2023-05-24T00:22:48;11.73;;;2.05;;
37955;SDS011;23776;51.592;7.180;2023-05-24T00:25:13;5.80;;;2.00;;
37955;SDS011;23776;51.592;7.180;2023-05-24T00:27:39;6.13;;;2.25;;
37955;SDS011;23776;51.592;7.180;2023-05-24T00:30:05;8.18;;;2.05;;
37955;SDS011;23776;51.592;7.180;2023-05-24T00:32:31;14.48;;;2.28;;
37955;SDS011;23776;51.592;7.180;2023-05-24T00:34:57;14.27;;;2.90;;
37955;SDS011;23776;51.592;7.180;2023-05-24T00:37:23;8.48;;;2.58;;
37955;SDS011;23776;51.592;7.180;2023-05-24T00:39:48;14.07;;;2.20;;
37955;SDS011;23776;51.592;7.180;2023-05-24T00:42:14;16.05;;;3.05;;
37955;SDS011;23776;51.592;7.180;2023-05-24T00:44:40;7.90;;;2.40;;
37955;SDS011;23776;51.592;7.180;2023-05-24T00:47:06;17.88;;;2.47;;
37955;SDS011;23776;51.592;7.180;2023-05-24T00:49:31;8.15;;;2.03;;
37955;SDS011;23776;51.592;7.180;2023-05-24T00:51:58;20.10;;;2.90;;
37955;SDS011;23776;51.592;7.180;2023-05-24T00:54:24;10.45;;;2.40;;
37955;SDS011;23776;51.592;7.180;2023-05-24T00:56:51;11.15;;;2.50;;
37955;SDS011;23776;51.592;7.180;2023-05-24T00:59:17;8.65;;;2.13;;
37955;SDS011;23776;51.592;7.180;2023-05-24T01:01:43;13.45;;;2.55;;
37955;SDS011;23776;51.592;7.180;2023-05-24T01:04:11;9.50;;;2.50;;
37955;SDS011;23776;51.592;7.180;2023-05-24T01:06:42;11.95;;;2.58;;
37955;SDS011;23776;51.592;7.180;2023-05-24T01:09:25;14.45;;;2.45;;
37955;SDS011;23776;51.592;7.180;2023-05-24T01:14:52;12.60;;;3.33;;
37955;SDS011;23776;51.592;7.180;2023-05-24T01:20:31;15.52;;;2.55;;
37955;SDS011;23776;51.592;7.180;2023-05-24T01:23:17;13.98;;;2.47;;
37955;SDS011;23776;51.592;7.180;2023-05-24T01:25:52;11.88;;;3.25;;
37955;SDS011;23776;51.592;7.180;2023-05-24T01:28:42;12.88;;;2.63;;
37955;SDS011;23776;51.592;7.180;2023-05-24T01:31:09;21.52;;;3.20;;
37955;SDS011;23776;51.592;7.180;2023-05-24T01:33:42;12.18;;;3.20;;
37955;SDS011;23776;51.592;7.180;2023-05-24T01:36:08;10.43;;;2.72;;
37955;SDS011;23776;51.592;7.180;2023-05-24T01:38:35;10.20;;;2.47;;
37955;SDS011;23776;51.592;7.180;2023-05-24T01:41:08;12.52;;;2.17;;
37955;SDS011;23776;51.592;7.180;2023-05-24T01:43:58;16.75;;;2.88;;
37955;SDS011;23776;51.592;7.180;2023-05-24T01:51:48;15.77;;;3.35;;
37955;SDS011;23776;51.592;7.180;2023-05-24T01:54:38;15.60;;;2.90;;
37955;SDS011;23776;51.592;7.180;2023-05-24T01:57:09;15.95;;;2.78;;
37955;SDS011;23776;51.592;7.180;2023-05-24T01:59:35;11.45;;;2.83;;
37955;SDS011;23776;51.592;7.180;2023-05-24T02:02:01;9.07;;;2.33;;
37955;SDS011;23776;51.592;7.180;2023-05-24T02:04:27;12.20;;;2.80;;
37955;SDS011;23776;51.592;7.180;2023-05-24T02:06:53;18.48;;;3.45;;
37955;SDS011;23776;51.592;7.180;2023-05-24T02:09:18;8.35;;;2.40;;
37955;SDS011;23776;51.592;7.180;2023-05-24T02:11:44;10.50;;;3.00;;
37955;SDS011;23776;51.592;7.180;2023-05-24T02:14:10;13.68;;;2.80;;
37955;SDS011;23776;51.592;7.180;2023-05-24T02:16:35;10.30;;;2.67;;
37955;SDS011;23776;51.592;7.180;2023-05-24T02:19:07;12.93;;;2.67;;
37955;SDS011;23776;51.592;7.180;2023-05-24T02:21:33;13.88;;;2.67;;
37955;SDS011;23776;51.592;7.180;2023-05-24T02:23:58;21.25;;;6.80;;
37955;SDS011;23776;51.592;7.180;2023-05-24T02:26:24;16.00;;;3.47;;
37955;SDS011;23776;51.592;7.180;2023-05-24T02:28:50;8.85;;;3.10;;
37955;SDS011;23776;51.592;7.180;2023-05-24T02:31:16;13.77;;;3.58;;
37955;SDS011;23776;51.592;7.180;2023-05-24T02:33:42;12.65;;;2.97;;
37955;SDS011;23776;51.592;7.180;2023-05-24T02:36:07;13.35;;;3.15;;
37955;SDS011;23776;51.592;7.180;2023-05-24T02:38:33;13.25;;;3.25;;
37955;SDS011;23776;51.592;7.180;2023-05-24T02:40:59;11.38;;;2.92;;
37955;SDS011;23776;51.592;7.180;2023-05-24T02:43:24;12.18;;;2.63;;
37955;SDS011;23776;51.592;7.180;2023-05-24T02:45:50;26.67;;;3.70;;
37955;SDS011;23776;51.592;7.180;2023-05-24T02:48:15;19.38;;;3.05;;
37955;SDS011;23776;51.592;7.180;2023-05-24T02:50:41;12.60;;;2.97;;
37955;SDS011;23776;51.592;7.180;2023-05-24T02:53:06;16.23;;;3.17;;
37955;SDS011;23776;51.592;7.180;2023-05-24T02:55:32;14.23;;;2.97;;
37955;SDS011;23776;51.592;7.180;2023-05-24T02:57:58;18.27;;;3.45;;
37955;SDS011;23776;51.592;7.180;2023-05-24T03:00:23;20.88;;;4.18;;
37955;SDS011;23776;51.592;7.180;2023-05-24T03:02:49;7.78;;;2.60;;
37955;SDS011;23776;51.592;7.180;2023-05-24T03:05:16;10.48;;;2.85;;
37955;SDS011;23776;51.592;7.180;2023-05-24T03:07:42;8.07;;;3.13;;
37955;SDS011;23776;51.592;7.180;2023-05-24T03:10:08;18.15;;;3.47;;
37955;SDS011;23776;51.592;7.180;2023-05-24T03:12:33;15.90;;;3.42;;
37955;SDS011;23776;51.592;7.180;2023-05-24T03:14:59;17.23;;;3.53;;
37955;SDS011;23776;51.592;7.180;2023-05-24T03:17:25;8.98;;;3.50;;
37955;SDS011;23776;51.592;7.180;2023-05-24T03:19:51;13.25;;;3.47;;
37955;SDS011;23776;51.592;7.180;2023-05-24T03:22:17;10.68;;;3.40;;
37955;SDS011;23776;51.592;7.180;2023-05-24T03:24:43;13.70;;;2.72;;
37955;SDS011;23776;51.592;7.180;2023-05-24T03:27:10;14.23;;;3.17;;
37955;SDS011;23776;51.592;7.180;2023-05-24T03:29:36;10.57;;;3.20;;
37955;SDS011;23776;51.592;7.180;2023-05-24T03:32:01;16.65;;;3.20;;
37955;SDS011;23776;51.592;7.180;2023-05-24T03:34:27;11.10;;;3.45;;
37955;SDS011;23776;51.592;7.180;2023-05-24T03:36:54;8.63;;;3.03;;
37955;SDS011;23776;51.592;7.180;2023-05-24T03:39:19;11.55;;;3.67;;
37955;SDS011;23776;51.592;7.180;2023-05-24T03:41:45;8.55;;;3.05;;
37955;SDS011;23776;51.592;7.180;2023-05-24T03:44:11;15.88;;;3.92;;
37955;SDS011;23776;51.592;7.180;2023-05-24T03:46:37;18.00;;;3.42;;
37955;SDS011;23776;51.592;7.180;2023-05-24T03:49:02;9.95;;;3.97;;
37955;SDS011;23776;51.592;7.180;2023-05-24T03:51:28;22.38;;;4.30;;
37955;SDS011;23776;51.592;7.180;2023-05-24T03:53:55;19.92;;;3.90;;
37955;SDS011;23776;51.592;7.180;2023-05-24T03:56:21;15.23;;;3.97;;
37955;SDS011;23776;51.592;7.180;2023-05-24T03:58:47;18.95;;;4.47;;
37955;SDS011;23776;51.592;7.180;2023-05-24T04:01:12;16.90;;;4.40;;
37955;SDS011;23776;51.592;7.180;2023-05-24T04:03:38;14.68;;;3.53;;
37955;SDS011;23776;51.592;7.180;2023-05-24T04:06:04;14.68;;;4.35;;
37955;SDS011;23776;51.592;7.180;2023-05-24T04:08:30;16.17;;;4.18;;
37955;SDS011;23776;51.592;7.180;2023-05-24T04:10:56;14.05;;;3.88;;
37955;SDS011;23776;51.592;7.180;2023-05-24T04:13:21;19.83;;;4.32;;
37955;SDS011;23776;51.592;7.180;2023-05-24T04:15:47;15.18;;;4.40;;
37955;SDS011;23776;51.592;7.180;2023-05-24T04:18:12;23.90;;;4.82;;
37955;SDS011;23776;51.592;7.180;2023-05-24T04:20:38;15.52;;;3.88;;
37955;SDS011;23776;51.592;7.180;2023-05-24T04:23:05;19.73;;;4.70;;
37955;SDS011;23776;51.592;7.180;2023-05-24T04:25:30;14.57;;;3.72;;
37955;SDS011;23776;51.592;7.180;2023-05-24T04:27:57;16.10;;;5.10;;
37955;SDS011;23776;51.592;7.180;2023-05-24T04:30:24;17.30;;;4.70;;
37955;SDS011;23776;51.592;7.180;2023-05-24T04:32:50;20.02;;;5.13;;
37955;SDS011;23776;51.592;7.180;2023-05-24T04:35:15;21.60;;;5.03;;
37955;SDS011;23776;51.592;7.180;2023-05-24T04:37:41;23.02;;;5.43;;
37955;SDS011;23776;51.592;7.180;2023-05-24T04:40:07;18.27;;;4.78;;
37955;SDS011;23776;51.592;7.180;2023-05-24T04:42:33;19.67;;;4.90;;
37955;SDS011;23776;51.592;7.180;2023-05-24T04:44:59;21.83;;;5.35;;
37955;SDS011;23776;51.592;7.180;2023-05-24T04:47:25;14.27;;;5.80;;
37955;SDS011;23776;51.592;7.180;2023-05-24T04:49:50;21.23;;;4.82;;
37955;SDS011;23776;51.592;7.180;2023-05-24T04:52:17;17.27;;;5.10;;
37955;SDS011;23776;51.592;7.180;2023-05-24T04:54:43;16.23;;;5.28;;
37955;SDS011;23776;51.592;7.180;2023-05-24T04:57:08;25.80;;;5.80;;
37955;SDS011;23776;51.592;7.180;2023-05-24T04:59:34;24.42;;;5.50;;
37955;SDS011;23776;51.592;7.180;2023-05-24T05:02:00;18.08;;;4.95;;
37955;SDS011;23776;51.592;7.180;2023-05-24T05:04:26;19.35;;;4.93;;
37955;SDS011;23776;51.592;7.180;2023-05-24T05:06:52;24.17;;;6.38;;
37955;SDS011;23776;51.592;7.180;2023-05-24T05:09:19;23.85;;;5.85;;
37955;SDS011;23776;51.592;7.180;2023-05-24T05:11:46;17.48;;;5.97;;
37955;SDS011;23776;51.592;7.180;2023-05-24T05:14:12;22.38;;;6.22;;
37955;SDS011;23776;51.592;7.180;2023-05-24T05:16:38;25.17;;;5.13;;
37955;SDS011;23776;51.592;7.180;2023-05-24T05:19:05;26.48;;;7.30;;
37955;SDS011;23776;51.592;7.180;2023-05-24T05:21:31;16.90;;;5.85;;
37955;SDS011;23776;51.592;7.180;2023-05-24T05:24:00;24.13;;;5.90;;
37955;SDS011;23776;51.592;7.180;2023-05-24T05:26:26;23.55;;;5.57;;
37955;SDS011;23776;51.592;7.180;2023-05-24T05:28:52;28.27;;;6.55;;
37955;SDS011;23776;51.592;7.180;2023-05-24T05:31:21;22.48;;;5.55;;
37955;SDS011;23776;51.592;7.180;2023-05-24T05:33:47;19.02;;;6.05;;
37955;SDS011;23776;51.592;7.180;2023-05-24T05:36:13;25.80;;;5.35;;
37955;SDS011;23776;51.592;7.180;2023-05-24T05:38:39;25.10;;;6.13;;
37955;SDS011;23776;51.592;7.180;2023-05-24T05:41:05;24.33;;;5.50;;
37955;SDS011;23776;51.592;7.180;2023-05-24T05:43:31;25.80;;;5.80;;
37955;SDS011;23776;51.592;7.180;2023-05-24T05:45:56;23.63;;;6.20;;
37955;SDS011;23776;51.592;7.180;2023-05-24T05:48:22;23.92;;;7.40;;
37955;SDS011;23776;51.592;7.180;2023-05-24T05:50:48;28.25;;;7.07;;
37955;SDS011;23776;51.592;7.180;2023-05-24T05:53:14;24.60;;;5.50;;
37955;SDS011;23776;51.592;7.180;2023-05-24T05:55:40;24.88;;;6.50;;
37955;SDS011;23776;51.592;7.180;2023-05-24T05:58:06;27.85;;;6.18;;
37955;SDS011;23776;51.592;7.180;2023-05-24T06:00:31;17.05;;;5.72;;
37955;SDS011;23776;51.592;7.180;2023-05-24T06:02:57;37.47;;;7.30;;
37955;SDS011;23776;51.592;7.180;2023-05-24T06:05:22;21.15;;;6.75;;
37955;SDS011;23776;51.592;7.180;2023-05-24T06:07:48;17.85;;;6.47;;
37955;SDS011;23776;51.592;7.180;2023-05-24T06:10:14;24.25;;;6.00;;
37955;SDS011;23776;51.592;7.180;2023-05-24T06:12:39;21.73;;;6.75;;
37955;SDS011;23776;51.592;7.180;2023-05-24T06:15:08;17.60;;;6.35;;
37955;SDS011;23776;51.592;7.180;2023-05-24T06:17:34;28.08;;;5.85;;
37955;SDS011;23776;51.592;7.180;2023-05-24T06:20:02;29.00;;;7.57;;
37955;SDS011;23776;51.592;7.180;2023-05-24T06:22:31;29.40;;;6.28;;
37955;SDS011;23776;51.592;7.180;2023-05-24T06:24:57;34.88;;;6.28;;
37955;SDS011;23776;51.592;7.180;2023-05-24T06:27:22;25.30;;;5.60;;
37955;SDS011;23776;51.592;7.180;2023-05-24T06:29:48;23.10;;;5.88;;
37955;SDS011;23776;51.592;7.180;2023-05-24T06:32:13;23.55;;;5.55;;
37955;SDS011;23776;51.592;7.180;2023-05-24T06:34:39;30.65;;;6.68;;
37955;SDS011;23776;51.592;7.180;2023-05-24T06:37:05;26.25;;;6.63;;
37955;SDS011;23776;51.592;7.180;2023-05-24T06:39:34;29.10;;;6.03;;
37955;SDS011;23776;51.592;7.180;2023-05-24T06:42:00;19.88;;;5.53;;
37955;SDS011;23776;51.592;7.180;2023-05-24T06:44:26;28.25;;;6.05;;
37955;SDS011;23776;51.592;7.180;2023-05-24T06:46:57;31.13;;;6.57;;
37955;SDS011;23776;51.592;7.180;2023-05-24T06:49:23;23.17;;;6.03;;
37955;SDS011;23776;51.592;7.180;2023-05-24T06:51:49;32.10;;;6.28;;
37955;SDS011;23776;51.592;7.180;2023-05-24T06:54:15;28.85;;;6.65;;
37955;SDS011;23776;51.592;7.180;2023-05-24T06:56:40;34.60;;;5.95;;
37955;SDS011;23776;51.592;7.180;2023-05-24T06:59:06;36.72;;;6.32;;
37955;SDS011;23776;51.592;7.180;2023-05-24T07:01:32;24.15;;;5.35;;
37955;SDS011;23776;51.592;7.180;2023-05-24T07:03:58;16.75;;;4.70;;
37955;SDS011;23776;51.592;7.180;2023-05-24T07:06:23;24.30;;;4.97;;
37955;SDS011;23776;51.592;7.180;2023-05-24T07:08:49;24.02;;;5.22;;
37955;SDS011;23776;51.592;7.180;2023-05-24T07:11:15;26.00;;;5.03;;
37955;SDS011;23776;51.592;7.180;2023-05-24T07:13:40;27.50;;;5.40;;
37955;SDS011;23776;51.592;7.180;2023-05-24T07:16:06;21.20;;;5.18;;
37955;SDS011;23776;51.592;7.180;2023-05-24T07:18:33;28.13;;;5.57;;
37955;SDS011;23776;51.592;7.180;2023-05-24T07:20:58;28.83;;;4.90;;
37955;SDS011;23776;51.592;7.180;2023-05-24T07:23:24;25.98;;;4.93;;
37955;SDS011;23776;51.592;7.180;2023-05-24T07:25:50;27.95;;;6.50;;
37955;SDS011;23776;51.592;7.180;2023-05-24T07:28:16;29.83;;;5.80;;
37955;SDS011;23776;51.592;7.180;2023-05-24T07:30:44;34.10;;;5.30;;
37955;SDS011;23776;51.592;7.180;2023-05-24T07:33:10;22.55;;;5.68;;
37955;SDS011;23776;51.592;7.180;2023-05-24T07:35:36;16.27;;;4.95;;
37955;SDS011;23776;51.592;7.180;2023-05-24T07:38:02;18.88;;;4.13;;
37955;SDS011;23776;51.592;7.180;2023-05-24T07:40:28;17.73;;;4.50;;
37955;SDS011;23776;51.592;7.180;2023-05-24T07:42:53;17.88;;;4.53;;
37955;SDS011;23776;51.592;7.180;2023-05-24T07:45:19;26.83;;;5.07;;
37955;SDS011;23776;51.592;7.180;2023-05-24T07:47:44;19.80;;;4.40;;
37955;SDS011;23776;51.592;7.180;2023-05-24T07:50:10;25.77;;;4.80;;
37955;SDS011;23776;51.592;7.180;2023-05-24T07:52:36;24.25;;;5.15;;
37955;SDS011;23776;51.592;7.180;2023-05-24T07:55:02;27.05;;;5.57;;
37955;SDS011;23776;51.592;7.180;2023-05-24T07:57:29;15.73;;;3.97;;
37955;SDS011;23776;51.592;7.180;2023-05-24T07:59:54;28.77;;;5.55;;
37955;SDS011;23776;51.592;7.180;2023-05-24T08:02:20;24.95;;;4.93;;
37955;SDS011;23776;51.592;7.180;2023-05-24T08:04:45;25.98;;;5.15;;
37955;SDS011;23776;51.592;7.180;2023-05-24T08:07:11;22.77;;;5.00;;
37955;SDS011;23776;51.592;7.180;2023-05-24T08:09:36;19.25;;;4.18;;
37955;SDS011;23776;51.592;7.180;2023-05-24T08:12:03;20.73;;;5.00;;
37955;SDS011;23776;51.592;7.180;2023-05-24T08:14:29;20.05;;;4.22;;
37955;SDS011;23776;51.592;7.180;2023-05-24T08:16:55;19.35;;;4.40;;
37955;SDS011;23776;51.592;7.180;2023-05-24T08:19:21;25.80;;;4.97;;
37955;SDS011;23776;51.592;7.180;2023-05-24T08:21:47;20.83;;;4.07;;
37955;SDS011;23776;51.592;7.180;2023-05-24T08:24:13;24.02;;;4.50;;
37955;SDS011;23776;51.592;7.180;2023-05-24T08:26:38;17.58;;;3.90;;
37955;SDS011;23776;51.592;7.180;2023-05-24T08:29:04;29.40;;;4.88;;
37955;SDS011;23776;51.592;7.180;2023-05-24T08:31:30;16.55;;;3.92;;
37955;SDS011;23776;51.592;7.180;2023-05-24T08:33:58;21.17;;;3.67;;
37955;SDS011;23776;51.592;7.180;2023-05-24T08:36:25;24.92;;;4.63;;
37955;SDS011;23776;51.592;7.180;2023-05-24T08:38:50;17.67;;;4.45;;
37955;SDS011;23776;51.592;7.180;2023-05-24T08:41:16;24.40;;;4.13;;
37955;SDS011;23776;51.592;7.180;2023-05-24T08:43:42;20.48;;;3.97;;
37955;SDS011;23776;51.592;7.180;2023-05-24T08:46:08;22.60;;;4.13;;
37955;SDS011;23776;51.592;7.180;2023-05-24T08:48:37;23.70;;;4.82;;
37955;SDS011;23776;51.592;7.180;2023-05-24T08:51:11;22.17;;;4.80;;
37955;SDS011;23776;51.592;7.180;2023-05-24T08:53:39;13.32;;;3.75;;
37955;SDS011;23776;51.592;7.180;2023-05-24T08:56:06;21.20;;;3.28;;
37955;SDS011;23776;51.592;7.180;2023-05-24T08:58:34;19.45;;;4.05;;
37955;SDS011;23776;51.592;7.180;2023-05-24T09:01:02;17.67;;;3.63;;
37955;SDS011;23776;51.592;7.180;2023-05-24T09:03:28;14.05;;;3.25;;
37955;SDS011;23776;51.592;7.180;2023-05-24T09:05:56;34.50;;;5.47;;
37955;SDS011;23776;51.592;7.180;2023-05-24T09:08:22;19.52;;;4.65;;
37955;SDS011;23776;51.592;7.180;2023-05-24T09:10:48;19.05;;;3.42;;
37955;SDS011;23776;51.592;7.180;2023-05-24T09:13:14;18.05;;;3.60;;
37955;SDS011;23776;51.592;7.180;2023-05-24T09:15:41;20.67;;;3.40;;
37955;SDS011;23776;51.592;7.180;2023-05-24T09:18:06;21.70;;;4.28;;
37955;SDS011;23776;51.592;7.180;2023-05-24T09:20:32;12.57;;;3.58;;
37955;SDS011;23776;51.592;7.180;2023-05-24T09:22:57;20.05;;;4.50;;
37955;SDS011;23776;51.592;7.180;2023-05-24T09:25:24;19.52;;;4.05;;
37955;SDS011;23776;51.592;7.180;2023-05-24T09:27:54;18.52;;;4.38;;
37955;SDS011;23776;51.592;7.180;2023-05-24T09:30:20;20.27;;;4.00;;
37955;SDS011;23776;51.592;7.180;2023-05-24T09:32:59;19.17;;;3.88;;
37955;SDS011;23776;51.592;7.180;2023-05-24T09:35:26;16.95;;;4.43;;
37955;SDS011;23776;51.592;7.180;2023-05-24T09:37:58;14.23;;;3.70;;
37955;SDS011;23776;51.592;7.180;2023-05-24T09:40:25;23.73;;;3.78;;
37955;SDS011;23776;51.592;7.180;2023-05-24T09:45:31;22.35;;;3.40;;
37955;SDS011;23776;51.592;7.180;2023-05-24T09:47:57;16.90;;;3.63;;
37955;SDS011;23776;51.592;7.180;2023-05-24T09:50:23;21.58;;;3.70;;
37955;SDS011;23776;51.592;7.180;2023-05-24T09:52:51;11.93;;;2.92;;
37955;SDS011;23776;51.592;7.180;2023-05-24T09:55:18;12.23;;;3.00;;
37955;SDS011;23776;51.592;7.180;2023-05-24T09:57:44;18.15;;;3.60;;
37955;SDS011;23776;51.592;7.180;2023-05-24T10:00:15;21.90;;;3.72;;
37955;SDS011;23776;51.592;7.180;2023-05-24T10:02:46;11.75;;;3.38;;
37955;SDS011;23776;51.592;7.180;2023-05-24T10:05:28;19.85;;;3.58;;
37955;SDS011;23776;51.592;7.180;2023-05-24T10:07:55;16.67;;;3.35;;
37955;SDS011;23776;51.592;7.180;2023-05-24T10:10:22;9.85;;;2.80;;
37955;SDS011;23776;51.592;7.180;2023-05-24T10:12:51;19.00;;;4.47;;
37955;SDS011;23776;51.592;7.180;2023-05-24T10:15:19;16.90;;;3.15;;
37955;SDS011;23776;51.592;7.180;2023-05-24T10:17:44;15.02;;;3.28;;
37955;SDS011;23776;51.592;7.180;2023-05-24T10:20:10;19.85;;;4.20;;
37955;SDS011;23776;51.592;7.180;2023-05-24T10:22:36;23.40;;;3.75;;
37955;SDS011;23776;51.592;7.180;2023-05-24T10:25:07;23.63;;;3.65;;
37955;SDS011;23776;51.592;7.180;2023-05-24T10:27:36;19.00;;;3.70;;
37955;SDS011;23776;51.592;7.180;2023-05-24T10:32:45;25.98;;;3.92;;
37955;SDS011;23776;51.592;7.180;2023-05-24T10:35:12;26.05;;;4.18;;
37955;SDS011;23776;51.592;7.180;2023-05-24T10:37:39;12.60;;;3.28;;
37955;SDS011;23776;51.592;7.180;2023-05-24T10:40:06;15.95;;;3.55;;
37955;SDS011;23776;51.592;7.180;2023-05-24T10:42:34;14.60;;;3.55;;
37955;SDS011;23776;51.592;7.180;2023-05-24T10:45:13;24.92;;;3.42;;
37955;SDS011;23776;51.592;7.180;2023-05-24T10:47:46;19.60;;;3.78;;
37955;SDS011;23776;51.592;7.180;2023-05-24T10:50:15;15.55;;;4.30;;
37955;SDS011;23776;51.592;7.180;2023-05-24T10:52:43;16.20;;;2.97;;
37955;SDS011;23776;51.592;7.180;2023-05-24T10:55:09;19.58;;;4.03;;
37955;SDS011;23776;51.592;7.180;2023-05-24T10:57:35;17.98;;;3.65;;
37955;SDS011;23776;51.592;7.180;2023-05-24T11:03:10;26.85;;;5.00;;
37955;SDS011;23776;51.592;7.180;2023-05-24T11:08:11;14.73;;;3.83;;
37955;SDS011;23776;51.592;7.180;2023-05-24T11:10:37;25.08;;;3.95;;
37955;SDS011;23776;51.592;7.180;2023-05-24T11:13:05;17.98;;;5.32;;
37955;SDS011;23776;51.592;7.180;2023-05-24T11:15:33;17.00;;;3.30;;
37955;SDS011;23776;51.592;7.180;2023-05-24T11:20:36;12.75;;;2.88;;
37955;SDS011;23776;51.592;7.180;2023-05-24T11:23:03;11.68;;;3.00;;
37955;SDS011;23776;51.592;7.180;2023-05-24T11:25:33;16.85;;;3.72;;
37955;SDS011;23776;51.592;7.180;2023-05-24T11:28:01;19.17;;;3.95;;
37955;SDS011;23776;51.592;7.180;2023-05-24T11:30:28;21.52;;;3.63;;
37955;SDS011;23776;51.592;7.180;2023-05-24T11:32:56;19.55;;;4.22;;
37955;SDS011;23776;51.592;7.180;2023-05-24T11:35:22;13.30;;;3.58;;
37955;SDS011;23776;51.592;7.180;2023-05-24T11:37:51;15.52;;;3.40;;
37955;SDS011;23776;51.592;7.180;2023-05-24T11:40:17;14.20;;;3.58;;
37955;SDS011;23776;51.592;7.180;2023-05-24T11:42:44;15.77;;;3.85;;
37955;SDS011;23776;51.592;7.180;2023-05-24T11:45:11;23.23;;;4.68;;
37955;SDS011;23776;51.592;7.180;2023-05-24T11:47:37;13.13;;;3.92;;
37955;SDS011;23776;51.592;7.180;2023-05-24T11:50:04;16.90;;;3.63;;
37955;SDS011;23776;51.592;7.180;2023-05-24T11:52:30;15.43;;;3.72;;
37955;SDS011;23776;51.592;7.180;2023-05-24T11:54:56;14.38;;;3.80;;
37955;SDS011;23776;51.592;7.180;2023-05-24T11:57:44;14.05;;;3.63;;
37955;SDS011;23776;51.592;7.180;2023-05-24T12:00:12;11.95;;;2.90;;
37955;SDS011;23776;51.592;7.180;2023-05-24T12:02:41;12.60;;;3.40;;
37955;SDS011;23776;51.592;7.180;2023-05-24T12:05:07;17.23;;;3.90;;
37955;SDS011;23776;51.592;7.180;2023-05-24T12:07:35;18.05;;;4.20;;
37955;SDS011;23776;51.592;7.180;2023-05-24T12:10:02;10.80;;;3.33;;
37955;SDS011;23776;51.592;7.180;2023-05-24T12:12:29;18.23;;;3.40;;
37955;SDS011;23776;51.592;7.180;2023-05-24T12:14:54;18.70;;;4.00;;
37955;SDS011;23776;51.592;7.180;2023-05-24T12:17:20;19.90;;;3.95;;
37955;SDS011;23776;51.592;7.180;2023-05-24T12:19:49;20.85;;;4.55;;
37955;SDS011;23776;51.592;7.180;2023-05-24T12:22:16;17.67;;;3.90;;
37955;SDS011;23776;51.592;7.180;2023-05-24T12:24:41;17.30;;;3.60;;
37955;SDS011;23776;51.592;7.180;2023-05-24T12:27:07;17.58;;;4.20;;
37955;SDS011;23776;51.592;7.180;2023-05-24T12:29:36;17.17;;;3.80;;
37955;SDS011;23776;51.592;7.180;2023-05-24T12:32:03;15.45;;;3.10;;
37955;SDS011;23776;51.592;7.180;2023-05-24T12:34:30;14.85;;;3.50;;
37955;SDS011;23776;51.592;7.180;2023-05-24T12:36:56;13.93;;;3.95;;
37955;SDS011;23776;51.592;7.180;2023-05-24T12:39:27;16.75;;;4.30;;
37955;SDS011;23776;51.592;7.180;2023-05-24T12:41:58;22.50;;;4.65;;
37955;SDS011;23776;51.592;7.180;2023-05-24T12:44:26;20.85;;;3.90;;
37955;SDS011;23776;51.592;7.180;2023-05-24T12:46:58;17.15;;;3.97;;
37955;SDS011;23776;51.592;7.180;2023-05-24T12:49:25;19.13;;;4.50;;
37955;SDS011;23776;51.592;7.180;2023-05-24T12:51:52;14.88;;;4.20;;
37955;SDS011;23776;51.592;7.180;2023-05-24T12:54:20;14.00;;;3.90;;
37955;SDS011;23776;51.592;7.180;2023-05-24T12:56:47;16.88;;;3.85;;
37955;SDS011;23776;51.592;7.180;2023-05-24T12:59:13;15.63;;;4.25;;
37955;SDS011;23776;51.592;7.180;2023-05-24T13:01:38;19.52;;;4.38;;
37955;SDS011;23776;51.592;7.180;2023-05-24T13:04:04;16.65;;;4.68;;
37955;SDS011;23776;51.592;7.180;2023-05-24T13:06:30;18.88;;;4.55;;
37955;SDS011;23776;51.592;7.180;2023-05-24T13:08:55;24.80;;;5.57;;
37955;SDS011;23776;51.592;7.180;2023-05-24T13:11:21;14.80;;;3.97;;
37955;SDS011;23776;51.592;7.180;2023-05-24T13:13:49;18.08;;;4.55;;
37955;SDS011;23776;51.592;7.180;2023-05-24T13:16:15;16.88;;;3.88;;
37955;SDS011;23776;51.592;7.180;2023-05-24T13:18:40;19.35;;;4.47;;
37955;SDS011;23776;51.592;7.180;2023-05-24T13:21:06;19.63;;;4.15;;
37955;SDS011;23776;51.592;7.180;2023-05-24T13:23:32;15.13;;;4.28;;
37955;SDS011;23776;51.592;7.180;2023-05-24T13:26:01;11.48;;;3.90;;
37955;SDS011;23776;51.592;7.180;2023-05-24T13:28:28;17.48;;;3.75;;
37955;SDS011;23776;51.592;7.180;2023-05-24T13:30:54;20.38;;;4.60;;
37955;SDS011;23776;51.592;7.180;2023-05-24T13:33:20;27.63;;;6.97;;
37955;SDS011;23776;51.592;7.180;2023-05-24T13:35:45;22.85;;;4.20;;
37955;SDS011;23776;51.592;7.180;2023-05-24T13:38:11;11.00;;;4.15;;
37955;SDS011;23776;51.592;7.180;2023-05-24T13:40:37;21.23;;;3.20;;
37955;SDS011;23776;51.592;7.180;2023-05-24T13:43:04;13.88;;;3.63;;
37955;SDS011;23776;51.592;7.180;2023-05-24T13:45:29;18.35;;;4.60;;
37955;SDS011;23776;51.592;7.180;2023-05-24T13:47:57;20.30;;;4.07;;
37955;SDS011;23776;51.592;7.180;2023-05-24T13:50:27;14.45;;;4.00;;
37955;SDS011;23776;51.592;7.180;2023-05-24T13:52:55;12.63;;;3.83;;
37955;SDS011;23776;51.592;7.180;2023-05-24T13:55:21;20.02;;;4.72;;
37955;SDS011;23776;51.592;7.180;2023-05-24T13:57:47;15.30;;;4.22;;
37955;SDS011;23776;51.592;7.180;2023-05-24T14:00:13;19.85;;;4.00;;
37955;SDS011;23776;51.592;7.180;2023-05-24T14:02:39;18.80;;;3.90;;
37955;SDS011;23776;51.592;7.180;2023-05-24T14:05:04;19.52;;;3.85;;
37955;SDS011;23776;51.592;7.180;2023-05-24T14:07:30;16.08;;;4.38;;
37955;SDS011;23776;51.592;7.180;2023-05-24T14:09:56;19.17;;;4.38;;
37955;SDS011;23776;51.592;7.180;2023-05-24T14:12:21;23.20;;;5.25;;
37955;SDS011;23776;51.592;7.180;2023-05-24T14:14:47;23.50;;;4.40;;
37955;SDS011;23776;51.592;7.180;2023-05-24T14:17:13;25.60;;;4.68;;
37955;SDS011;23776;51.592;7.180;2023-05-24T14:19:38;18.63;;;4.60;;
37955;SDS011;23776;51.592;7.180;2023-05-24T14:22:04;16.77;;;3.85;;
37955;SDS011;23776;51.592;7.180;2023-05-24T14:24:30;18.23;;;4.22;;
37955;SDS011;23776;51.592;7.180;2023-05-24T14:26:55;12.85;;;4.43;;
37955;SDS011;23776;51.592;7.180;2023-05-24T14:29:21;16.90;;;4.28;;
37955;SDS011;23776;51.592;7.180;2023-05-24T14:31:46;16.58;;;4.00;;
37955;SDS011;23776;51.592;7.180;2023-05-24T14:34:12;11.32;;;3.90;;
37955;SDS011;23776;51.592;7.180;2023-05-24T14:36:38;16.52;;;4.40;;
37955;SDS011;23776;51.592;7.180;2023-05-24T14:39:05;16.63;;;4.30;;
37955;SDS011;23776;51.592;7.180;2023-05-24T14:41:31;19.50;;;3.58;;
37955;SDS011;23776;51.592;7.180;2023-05-24T14:43:58;12.18;;;3.63;;
37955;SDS011;23776;51.592;7.180;2023-05-24T14:46:23;22.75;;;5.72;;
37955;SDS011;23776;51.592;7.180;2023-05-24T14:48:49;12.95;;;4.43;;
37955;SDS011;23776;51.592;7.180;2023-05-24T14:51:15;18.45;;;4.80;;
37955;SDS011;23776;51.592;7.180;2023-05-24T14:53:40;15.90;;;4.20;;
37955;SDS011;23776;51.592;7.180;2023-05-24T14:56:06;18.27;;;3.65;;
37955;SDS011;23776;51.592;7.180;2023-05-24T14:58:33;17.42;;;3.75;;